Map

Track Data

SID SEASON NUMBER BASIN SUBBASIN NAME ISO_TIME NATURE LAT LON WMO_WIND WMO_PRES WMO_AGENCY TRACK_TYPE DIST2LAND LANDFALL IFLAG USA_AGENCY USA_ATCF_ID USA_LAT USA_LON USA_RECORD USA_STATUS USA_WIND USA_PRES USA_SSHS USA_R34_NE USA_R34_SE USA_R34_SW USA_R34_NW USA_R50_NE USA_R50_SE USA_R50_SW USA_R50_NW USA_R64_NE USA_R64_SE USA_R64_SW USA_R64_NW USA_POCI USA_ROCI USA_RMW USA_EYE TOKYO_LAT TOKYO_LON TOKYO_GRADE TOKYO_WIND TOKYO_PRES TOKYO_R50_DIR TOKYO_R50_LONG TOKYO_R50_SHORT TOKYO_R30_DIR TOKYO_R30_LONG TOKYO_R30_SHORT TOKYO_LAND CMA_LAT CMA_LON CMA_CAT CMA_WIND CMA_PRES HKO_LAT HKO_LON HKO_CAT HKO_WIND HKO_PRES NEWDELHI_LAT NEWDELHI_LON NEWDELHI_GRADE NEWDELHI_WIND NEWDELHI_PRES NEWDELHI_CI NEWDELHI_DP NEWDELHI_POCI REUNION_LAT REUNION_LON REUNION_TYPE REUNION_WIND REUNION_PRES REUNION_TNUM REUNION_CI REUNION_RMW REUNION_R34_NE REUNION_R34_SE REUNION_R34_SW REUNION_R34_NW REUNION_R50_NE REUNION_R50_SE REUNION_R50_SW REUNION_R50_NW REUNION_R64_NE REUNION_R64_SE REUNION_R64_SW REUNION_R64_NW BOM_LAT BOM_LON BOM_TYPE BOM_WIND BOM_PRES BOM_TNUM BOM_CI BOM_RMW BOM_R34_NE BOM_R34_SE BOM_R34_SW BOM_R34_NW BOM_R50_NE BOM_R50_SE BOM_R50_SW BOM_R50_NW BOM_R64_NE BOM_R64_SE BOM_R64_SW BOM_R64_NW BOM_ROCI BOM_POCI BOM_EYE BOM_POS_METHOD BOM_PRES_METHOD NADI_LAT NADI_LON NADI_CAT NADI_WIND NADI_PRES WELLINGTON_LAT WELLINGTON_LON WELLINGTON_WIND WELLINGTON_PRES DS824_LAT DS824_LON DS824_STAGE DS824_WIND DS824_PRES TD9636_LAT TD9636_LON TD9636_STAGE TD9636_WIND TD9636_PRES TD9635_LAT TD9635_LON TD9635_WIND TD9635_PRES TD9635_ROCI NEUMANN_LAT NEUMANN_LON NEUMANN_CLASS NEUMANN_WIND NEUMANN_PRES MLC_LAT MLC_LON MLC_CLASS MLC_WIND MLC_PRES USA_GUST BOM_GUST BOM_GUST_PER REUNION_GUST REUNION_GUST_PER USA_SEAHGT USA_SEARAD_NE USA_SEARAD_SE USA_SEARAD_SW USA_SEARAD_NW STORM_SPEED STORM_DIR
1984025S14073 1984 7 SI MM GALY 1984-01-25 06:00:00 NR -13.9000 73.2000 main 1785 1762 __________O___ -1 -13.9000 73.2000 1 16 316
1984025S14073 1984 7 SI MM GALY 1984-01-25 09:00:00 NR -13.3388 72.6447 main 1758 1732 __________P___ -1 -13.3388 72.6447 1 16 315
1984025S14073 1984 7 SI MM GALY 1984-01-25 12:00:00 NR -12.8018 72.0626 main 1738 1705 __________P___ -1 -12.8018 72.0626 1 16 311
1984025S14073 1984 7 SI MM GALY 1984-01-25 15:00:00 NR -12.3139 71.4242 main 1702 1664 __________P___ -1 -12.3139 71.4242 1 16 304
1984025S14073 1984 7 SI MM GALY 1984-01-25 18:00:00 NR -11.9000 70.7000 main 1664 1613 __________O___ -1 -11.9000 70.7000 1 17 296
1984025S14073 1984 7 SI MM GALY 1984-01-25 21:00:00 NR -11.5784 69.8779 main 1613 1560 __________P___ -1 -11.5784 69.8779 1 17 289
1984025S14073 1984 7 SI MM GALY 1984-01-26 00:00:00 NR -11.3443 69.0182 main 1558 1501 __________P___ -1 -11.3443 69.0182 1 17 283
1984025S14073 1984 7 SI MM GALY 1984-01-26 03:00:00 NR -11.1878 68.1994 main 1501 1454 __________P___ -1 -11.1878 68.1994 1 15 279
1984025S14073 1984 7 SI MM GALY 1984-01-26 06:00:00 NR -11.1000 67.5000 main 1454 1424 __________O___ -1 -11.1000 67.5000 1 12 277
1984025S14073 1984 7 SI MM GALY 1984-01-26 09:00:00 NR -11.0347 67.0133 main 1424 1401 __________P___ -1 -11.0347 67.0133 1 8 274
1984025S14073 1984 7 SI MM GALY 1984-01-26 12:00:00 NR -11.0361 66.6508 main 1401 1371 __________P___ -1 -11.0361 66.6508 1 6 265
1984025S14073 1984 7 SI MM GALY 1984-01-26 15:00:00 NR -11.0945 66.3629 main 1371 1341 __________P___ -1 -11.0945 66.3629 1 6 253
1984025S14073 1984 7 SI MM GALY 1984-01-26 18:00:00 NR -11.2000 66.1000 main 1341 1311 __________O___ -1 -11.2000 66.1000 1 6 253
1984025S14073 1984 7 SI MM GALY 1984-01-26 21:00:00 NR -11.2667 65.7932 main 1311 1282 __________P___ -1 -11.2667 65.7932 1 6 253
1984025S14073 1984 7 SI MM GALY 1984-01-27 00:00:00 NR -11.3848 65.4991 main 1282 1244 __________P___ -1 -11.3848 65.4991 1 7 241
1984025S14073 1984 7 SI MM GALY 1984-01-27 03:00:00 NR -11.5854 65.2054 main 1244 1197 __________P___ -1 -11.5854 65.2054 1 8 229
1984025S14073 1984 7 SI MM GALY 1984-01-27 06:00:00 NR -11.9000 64.9000 main 1197 1135 __________O___ -1 -11.9000 64.9000 1 10 220
1984025S14073 1984 7 SI MM GALY 1984-01-27 09:00:00 NR -12.3725 64.5249 main 1126 1062 __________P___ -1 -12.3725 64.5249 1 13 215
1984025S14073 1984 7 SI MM GALY 1984-01-27 12:00:00 NR -12.9530 64.1416 main 1046 983 __________P___ -1 -12.9530 64.1416 1 14 211
1984025S14073 1984 7 SI MM GALY 1984-01-27 15:00:00 NR -13.5819 63.7874 main 974 902 __________P___ -1 -13.5819 63.7874 1 14 207
1984025S14073 1984 7 SI MM GALY 1984-01-27 18:00:00 NR -14.2000 63.5000 main 902 846 __________O___ -1 -14.2000 63.5000 1 13 197
1984025S14073 1984 7 SI MM GALY 1984-01-27 21:00:00 NR -14.8345 63.3883 main 846 792 __________P___ -1 -14.8345 63.3883 1 13 187
1984025S14073 1984 7 SI MM GALY 1984-01-28 00:00:00 NR -15.4313 63.3368 main 792 755 __________P___ -1 -15.4313 63.3368 1 11 186
1984025S14073 1984 7 SI MM GALY 1984-01-28 03:00:00 NR -15.9125 63.2671 main 755 718 __________P___ -1 -15.9125 63.2671 1 8 196
1984025S14073 1984 7 SI MM GALY 1984-01-28 06:00:00 NR -16.2000 63.1000 main 718 693 __________O___ -1 -16.2000 63.1000 1 6 236
1984025S14073 1984 7 SI MM GALY 1984-01-28 09:00:00 NR -16.2334 62.7732 main 693 668 __________P___ -1 -16.2334 62.7732 1 7 280
1984025S14073 1984 7 SI MM GALY 1984-01-28 12:00:00 NR -16.0693 62.3373 main 660 647 __________P___ -1 -16.0693 62.3373 1 10 297
1984025S14073 1984 7 SI MM GALY 1984-01-28 15:00:00 NR -15.7706 61.8078 main 647 637 __________P___ -1 -15.7706 61.8078 1 13 301
1984025S14073 1984 7 SI MM GALY 1984-01-28 18:00:00 NR -15.4000 61.2000 main 643 637 __________O___ -1 -15.4000 61.2000 1 15 302
1984025S14073 1984 7 SI MM GALY 1984-01-28 21:00:00 NR -14.9857 60.4917 main 643 643 __________P___ -1 -14.9857 60.4917 1 17 301
1984025S14073 1984 7 SI MM GALY 1984-01-29 00:00:00 NR -14.5269 59.7240 main 661 658 __________P___ -1 -14.5269 59.7240 1 17 301
1984025S14073 1984 7 SI MM GALY 1984-01-29 03:00:00 NR -14.1044 58.9697 main 685 683 __________P___ -1 -14.1044 58.9697 1 16 298
1984025S14073 1984 7 SI MM GALY 1984-01-29 06:00:00 NR -13.8000 58.3000 main 707 707 __________O___ -1 -13.8000 58.3000 1 12 289
1984025S14073 1984 7 SI MM GALY 1984-01-29 09:00:00 NR -13.7114 57.8003 main 716 705 __________P___ -1 -13.7114 57.8003 1 11 268
1984025S14073 1984 7 SI MM GALY 1984-01-29 12:00:00 TS -13.8325 57.1598 20 1003 reunion main 705 683 _____O____P_O_ -1 -14.0000 56.7000 2 20 1003 1.50000 1.50000 -13.7487 57.3897 1 -14.0000 56.7000 TC 25 1003 11 258
1984025S14073 1984 7 SI MM GALY 1984-01-29 15:00:00 TS -13.9396 56.6983 main 683 638 _____P____P_P_ -1 -14.0175 56.3626 2 20 1003 -13.8617 57.0341 1 -14.0175 56.3626 TC 25 1003 9 259
1984025S14073 1984 7 SI MM GALY 1984-01-29 18:00:00 TS -14.0000 56.2800 20 1003 reunion main 638 586 _____O____O_O_ -1 -14.0000 56.0000 2 20 1003 1.50000 1.50000 -14.0000 56.7000 1 25 -14.0000 56.0000 TC 25 1003 9 268
1984025S14073 1984 7 SI MM GALY 1984-01-29 21:00:00 TS -13.9679 55.8037 main 586 554 _____P____P_P_ -1 -13.9476 55.6124 2 28 -14.0085 56.1864 1 25 -13.9476 55.6124 TC 25 1003 8 269
1984025S14073 1984 7 SI MM GALY 1984-01-30 00:00:00 TS -14.0141 55.4365 36 reunion main 544 517 _____O____P_O_ -1 -14.0000 55.3000 6 36 9.90000 -14.0423 55.7096 1 25 -14.0000 55.3000 TC 25 1003 7 246
1984025S14073 1984 7 SI MM GALY 1984-01-30 03:00:00 TS -14.2448 55.1747 main 517 499 _____P____P_P_ -1 -14.2898 55.0730 6 36 -14.1549 55.3781 1 25 -14.2898 55.0730 TC 25 1003 6 204
1984025S14073 1984 7 SI MM GALY 1984-01-30 06:00:00 TS -14.6000 55.1667 36 reunion main 509 508 _____O____O_O_ -1 -14.7000 55.1000 6 36 9.90000 -14.4000 55.3000 1 25 -14.7000 55.1000 TC 25 1003 9 154
1984025S14073 1984 7 SI MM GALY 1984-01-30 09:00:00 TS -15.0249 55.5669 main 548 546 _____P____P_P_ -1 -15.1153 55.5170 6 36 -14.8441 55.6669 1 26 -15.1153 55.5170 TC 25 1003 13 132
1984025S14073 1984 7 SI MM GALY 1984-01-30 12:00:00 TS -15.4726 56.1601 36 reunion main 532 488 _____O____P_O_ -1 -15.5000 56.1000 6 36 9.90000 -15.4178 56.2802 1 27 -15.5000 56.1000 TC 25 1003 14 126
1984025S14073 1984 7 SI MM GALY 1984-01-30 15:00:00 TS -15.8273 56.6935 main 488 437 _____P____P_P_ -1 -15.7123 56.5508 6 36 -16.0573 56.9791 1 28 -15.7123 56.5508 TC 25 1003 13 127
1984025S14073 1984 7 SI MM GALY 1984-01-30 18:00:00 TS -16.2333 57.2000 36 reunion main 437 369 _____O____O_O_ -1 -16.0000 57.0000 6 36 9.90000 -16.7000 57.6000 1 30 -16.0000 57.0000 TC 25 1003 14 134
1984025S14073 1984 7 SI MM GALY 1984-01-30 21:00:00 TS -16.7945 57.7274 main 369 304 _____P____P_P_ -1 -16.5602 57.5370 6 36 -17.2630 58.1082 1 30 -16.5602 57.5370 TC 25 1003 16 143
1984025S14073 1984 7 SI MM GALY 1984-01-31 00:00:00 TS -17.4727 58.1608 36 reunion main 295 228 _____O____P_O_ -1 -17.3000 58.0000 6 36 9.90000 -17.8182 58.4825 1 30 -17.3000 58.0000 TC 25 1003 16 153
1984025S14073 1984 7 SI MM GALY 1984-01-31 03:00:00 TS -18.2209 58.4825 main 228 152 _____P____P_P_ -1 -18.1492 58.4157 6 28 -18.3644 58.6159 1 30 -18.1492 58.4157 TC 25 1003 15 171
1984025S14073 1984 7 SI MM GALY 1984-01-31 06:00:00 TS -18.9667 58.4000 20 1003 reunion main 143 55 _____O____O_O_ -1 -19.0000 58.4000 2 20 1003 1.50000 1.50000 -18.9000 58.4000 1 30 -19.0000 58.4000 TC 25 1003 16 209
1984025S14073 1984 7 SI MM GALY 1984-01-31 09:00:00 TS -19.6506 57.6328 main 44 30 _____P____P_P_ -1 -19.7336 57.6172 2 22 1001 -19.4846 57.6639 1 31 -19.7336 57.6172 TC 27 1001 22 235
1984025S14073 1984 7 SI MM GALY 1984-01-31 12:00:00 TS -20.2144 56.5291 24 1000 reunion main 89 44 _____O____P_O_ -1 -20.3000 56.5000 2 24 1000 2.00000 2.00000 -20.0433 56.5874 1 32 -20.3000 56.5000 TC 30 1000 22 244
1984025S14073 1984 7 SI MM GALY 1984-01-31 15:00:00 TS -20.6310 55.5165 main 44 30 _____P____P_P_ -1 -20.6819 55.5918 2 24 1000 -20.5293 55.3661 1 33 -20.6819 55.5918 TC 30 1000 20 250
1984025S14073 1984 7 SI MM GALY 1984-01-31 18:00:00 TS -20.9000 54.5333 24 1000 reunion main 76 76 _____O____O_O_ -1 -20.9000 54.7000 2 24 1000 2.00000 2.00000 -20.9000 54.2000 2 35 -20.9000 54.7000 TC 30 1000 18 256
1984025S14073 1984 7 SI MM GALY 1984-01-31 21:00:00 TS -21.0600 53.6404 main 165 165 _____P____P_P_ -1 -21.0296 53.7919 2 26 998 -21.1208 53.3375 2 38 -21.0296 53.7919 TC 32 998 16 261
1984025S14073 1984 7 SI MM GALY 1984-02-01 00:00:00 TS -21.1441 52.7912 28 997 reunion main 248 248 _____O____P_O_ -1 -21.1000 52.9000 2 28 997 2.50000 2.50000 -21.2324 52.5736 2 42 -21.1000 52.9000 TC 35 997 16 264
1984025S14073 1984 7 SI MM GALY 1984-02-01 03:00:00 TS -21.2311 51.9494 main 342 296 _____P____P_P_ -1 -21.2078 51.9751 2 32 994 -21.2778 51.8980 2 46 -21.2078 51.9751 TC 40 994 15 264
1984025S14073 1984 7 SI MM GALY 1984-02-01 06:00:00 TS -21.3000 51.2333 36 991 reunion main 287 242 _____O____O_O_ -1 -21.3000 51.2000 3 36 991 3.00000 3.00000 -21.3000 51.3000 2 50 -21.3000 51.2000 TC 45 991 12 263
1984025S14073 1984 7 SI MM GALY 1984-02-01 09:00:00 TS -21.3638 50.7205 main 242 212 _____P____P_P_ -1 -21.3644 50.7024 3 36 991 -21.3626 50.7567 2 47 -21.3644 50.7024 TC 45 991 8 263
1984025S14073 1984 7 SI MM GALY 1984-02-01 12:00:00 TS -21.4043 50.3606 36 991 reunion main 212 181 _____O____P_O_ -1 -21.4000 50.4000 3 36 991 3.00000 3.00000 -21.4128 50.2819 2 45 -21.4000 50.4000 TC 45 991 6 265
1984025S14073 1984 7 SI MM GALY 1984-02-01 15:00:00 TS -21.4188 50.0653 main 181 151 _____P____P_P_ -1 -21.3998 50.1774 3 36 991 -21.4567 49.8412 2 42 -21.3998 50.1774 TC 45 991 5 267
1984025S14073 1984 7 SI MM GALY 1984-02-01 18:00:00 TS -21.4333 49.8000 36 991 reunion main 151 124 _____O____O_O_ -1 -21.4000 50.0000 3 36 991 3.00000 3.00000 -21.5000 49.4000 2 40 -21.4000 50.0000 TC 45 991 5 265
1984025S14073 1984 7 SI MM GALY 1984-02-01 21:00:00 TS -21.4607 49.4935 main 124 83 _____P____P_P_ -1 -21.4421 49.8174 3 36 991 -21.4978 48.8456 2 37 -21.4421 49.8174 TC 45 991 7 264
1984025S14073 1984 7 SI MM GALY 1984-02-02 00:00:00 TS -21.5013 49.0615 36 991 reunion main 83 23 _____O____P_O_ -1 -21.5000 49.5000 3 36 991 3.00000 3.00000 -21.5035 48.2942 2 35 -21.5000 49.5000 TC 45 991 10 265
1984025S14073 1984 7 SI MM GALY 1984-02-02 03:00:00 TS -21.5448 48.4617 main 23 0 _____P____P_P_ -1 -21.5280 48.8947 3 36 -21.5573 47.7958 2 32 -21.5535 48.9276 TC 47 11 263
1984025S14073 1984 7 SI MM GALY 1984-02-02 06:00:00 TS -21.6444 47.8444 36 reunion main 0 0 _____O____O_O_ -1 -21.6000 48.2000 6 36 9.90000 -21.7000 47.4000 1 30 -21.6000 48.2000 TC 50 11 252
1984025S14073 1984 7 SI MM GALY 1984-02-02 09:00:00 TS -21.8922 47.3441 main 0 0 _____P____P___ -1 -21.8077 47.5530 6 36 -21.9766 47.1352 1 TC 9 235
1984025S14073 1984 7 SI MM GALY 1984-02-02 12:00:00 TS -22.1720 47.0391 36 reunion main 0 0 _____O____P___ -1 -22.0000 47.1000 6 36 9.90000 -22.3440 46.9782 1 6 219
1984025S14073 1984 7 SI MM GALY 1984-02-02 15:00:00 TS -22.3258 46.9659 main 0 0 _____P____P___ -1 -21.8872 47.0247 6 36 -22.7644 46.9070 1 4 185
1984025S14073 1984 7 SI MM GALY 1984-02-02 18:00:00 TS -22.6000 47.0000 36 reunion main 0 0 _____O____O___ -1 -22.0000 47.1000 6 36 9.90000 -23.2000 46.9000 1 9 0
1984025S14073 1984 7 SI MM GALY 1984-02-02 21:00:00 TS -23.2599 46.9641 main 0 0 _____P____P___ -1 -22.8825 47.0355 6 36 -23.6373 46.8926 1 14 181
1984025S14073 1984 7 SI MM GALY 1984-02-03 00:00:00 TS -23.9874 46.9721 36 reunion main 0 0 _____O____P___ -1 -23.9000 47.0000 6 36 9.90000 -24.0747 46.9442 1 12 176
1984025S14073 1984 7 SI MM GALY 1984-02-03 03:00:00 TS -24.4761 47.0593 main 0 0 _____P____P___ -1 -24.4774 47.0697 6 36 -24.4748 47.0489 1 8 166
1984025S14073 1984 7 SI MM GALY 1984-02-03 06:00:00 TS -24.8000 47.2000 36 reunion main 10 10 _____O____O___ -1 -24.8000 47.2000 6 36 9.90000 -24.8000 47.2000 1 6 152
1984025S14073 1984 7 SI MM GALY 1984-02-03 09:00:00 TS -24.9725 47.3549 main 30 30 _____P____P___ -1 -24.9449 47.3277 6 36 -25.0001 47.3821 1 4 129
1984025S14073 1984 7 SI MM GALY 1984-02-03 12:00:00 TS -25.0626 47.5527 36 reunion main 51 51 _____O____P___ -1 -25.0000 47.5000 6 36 9.90000 -25.1251 47.6055 1 4 116
1984025S14073 1984 7 SI MM GALY 1984-02-03 15:00:00 TS -25.1701 47.7930 main 73 73 _____P____P___ -1 -25.1275 47.7351 6 36 -25.2126 47.8510 1 5 118
1984025S14073 1984 7 SI MM GALY 1984-02-03 18:00:00 TS -25.3000 48.0500 36 reunion main 106 96 _____O____O___ -1 -25.3000 48.0000 6 36 9.90000 -25.3000 48.1000 1 5 126
1984025S14073 1984 7 SI MM GALY 1984-02-03 21:00:00 TS -25.4878 48.2796 main 132 132 _____P____P___ -1 -25.5575 48.2499 6 36 -25.4181 48.3094 1 5 130
1984025S14073 1984 7 SI MM GALY 1984-02-04 00:00:00 TS -25.6555 48.5120 36 reunion main 160 160 _____O____P___ -1 -25.8000 48.5000 6 36 9.90000 -25.5471 48.5211 1 5 125
1984025S14073 1984 7 SI MM GALY 1984-02-04 03:00:00 TS -25.7800 48.7481 main 183 183 _____P____P___ -1 -25.9351 48.7501 6 36 -25.7025 48.7471 1 5 121
1984025S14073 1984 7 SI MM GALY 1984-02-04 06:00:00 TS -25.9200 49.0000 36 reunion main 215 215 _____O____O___ -1 -26.0000 49.0000 6 36 9.90000 -25.9000 49.0000 1 7 130
1984025S14073 1984 7 SI MM GALY 1984-02-04 09:00:00 NR -26.2019 49.3152 main 257 257 __________P___ -1 6 -26.2019 49.3152 1 9 136
1984025S14073 1984 7 SI MM GALY 1984-02-04 12:00:00 NR -26.5380 49.6555 main 309 309 __________P___ -1 -26.5380 49.6555 1 9 137
1984025S14073 1984 7 SI MM GALY 1984-02-04 15:00:00 NR -26.8551 49.9933 main 359 359 __________P___ -1 -26.8551 49.9933 1 8 134
1984025S14073 1984 7 SI MM GALY 1984-02-04 18:00:00 NR -27.1000 50.3000 main 396 396 __________O___ -1 -27.1000 50.3000 1 7 120
1984025S14073 1984 7 SI MM GALY 1984-02-04 21:00:00 NR -27.1834 50.6342 main 426 426 __________P___ -1 -27.1834 50.6342 1 6 100
1984025S14073 1984 7 SI MM GALY 1984-02-05 00:00:00 NR -27.1943 50.9182 main 451 451 __________P___ -1 -27.1943 50.9182 1 4 90
1984025S14073 1984 7 SI MM GALY 1984-02-05 03:00:00 NR -27.1830 51.0929 main 468 468 __________P___ -1 -27.1830 51.0929 1 2 92
1984025S14073 1984 7 SI MM GALY 1984-02-05 06:00:00 NR -27.2000 51.1000 main 468 457 __________O___ -1 -27.2000 51.1000 1 2 224
1984025S14073 1984 7 SI MM GALY 1984-02-05 09:00:00 NR -27.3501 50.9146 main 464 446 __________P___ -1 -27.3501 50.9146 1 6 236
1984025S14073 1984 7 SI MM GALY 1984-02-05 12:00:00 NR -27.5293 50.5574 main 446 423 __________P___ -1 -27.5293 50.5574 1 8 245
1984025S14073 1984 7 SI MM GALY 1984-02-05 15:00:00 NR -27.6938 50.0713 main 423 390 __________P___ -1 -27.6938 50.0713 1 10 254
1984025S14073 1984 7 SI MM GALY 1984-02-05 18:00:00 NR -27.8000 49.5000 main 390 361 __________O___ -1 -27.8000 49.5000 1 10 264
1984025S14073 1984 7 SI MM GALY 1984-02-05 21:00:00 NR -27.7976 48.9413 main 355 316 __________P___ -1 -27.7976 48.9413 1 11 274
1984025S14073 1984 7 SI MM GALY 1984-02-06 00:00:00 NR -27.7319 48.3114 main 316 282 __________P___ -1 -27.7319 48.3114 1 12 278
1984025S14073 1984 7 SI MM GALY 1984-02-06 03:00:00 NR -27.6253 47.6259 main 279 253 __________P___ -1 -27.6253 47.6259 1 13 281
1984025S14073 1984 7 SI MM GALY 1984-02-06 06:00:00 NR -27.5000 46.9000 main 253 212 __________O___ -1 -27.5000 46.9000 1 13 279
1984025S14073 1984 7 SI MM GALY 1984-02-06 09:00:00 NR -27.4060 46.1411 main 209 189 __________P___ -1 -27.4060 46.1411 1 14 278
1984025S14073 1984 7 SI MM GALY 1984-02-06 12:00:00 NR -27.2956 45.3507 main 189 179 __________P___ -1 -27.2956 45.3507 1 14 280
1984025S14073 1984 7 SI MM GALY 1984-02-06 15:00:00 NR -27.1622 44.5600 main 188 181 __________P___ -1 -27.1622 44.5600 1 14 282
1984025S14073 1984 7 SI MM GALY 1984-02-06 18:00:00 NR -27.0000 43.8000 main 199 195 __________O___ -1 -27.0000 43.8000 1 14 287
1984025S14073 1984 7 SI MM GALY 1984-02-06 21:00:00 NR -26.7626 43.0680 main 211 209 __________P___ -1 -26.7626 43.0680 1 14 291
1984025S14073 1984 7 SI MM GALY 1984-02-07 00:00:00 NR -26.5047 42.3778 main 231 231 __________P___ -1 -26.5047 42.3778 1 13 293
1984025S14073 1984 7 SI MM GALY 1984-02-07 03:00:00 NR -26.2693 41.7491 main 272 266 __________P___ -1 -26.2693 41.7491 1 11 291
1984025S14073 1984 7 SI MM GALY 1984-02-07 06:00:00 NR -26.1000 41.2000 main 306 306 __________O___ -1 -26.1000 41.2000 1 9 285
1984025S14073 1984 7 SI MM GALY 1984-02-07 09:00:00 NR -26.0311 40.7514 main 339 339 __________P___ -1 -26.0311 40.7514 1 7 275
1984025S14073 1984 7 SI MM GALY 1984-02-07 12:00:00 NR -26.0354 40.3764 main 375 375 __________P___ -1 -26.0354 40.3764 1 6 264
1984025S14073 1984 7 SI MM GALY 1984-02-07 15:00:00 NR -26.0971 40.0382 main 416 416 __________P___ -1 -26.0971 40.0382 1 6 255
1984025S14073 1984 7 SI MM GALY 1984-02-07 18:00:00 NR -26.2000 39.7000 main 448 448 __________O___ -1 -26.2000 39.7000 1 7 250
1984025S14073 1984 7 SI MM GALY 1984-02-07 21:00:00 NR -26.3293 39.3329 main 454 435 __________P___ -1 -26.3293 39.3329 1 7 248
1984025S14073 1984 7 SI MM GALY 1984-02-08 00:00:00 NR -26.4768 38.9380 main 434 407 __________P___ -1 -26.4768 38.9380 1 8 247
1984025S14073 1984 7 SI MM GALY 1984-02-08 03:00:00 NR -26.6359 38.5241 main 407 388 __________P___ -1 -26.6359 38.5241 1 8 247
1984025S14073 1984 7 SI MM GALY 1984-02-08 06:00:00 NR -26.8000 38.1000 main 388 __________O___ -1 -26.8000 38.1000 1 8 247

About IBTrACS Database

This database is a web-friendly format of International Best Track Archive for Climate Stewardship (IBTrACS), a global best track data archive curated by NOAA dating back to 1842.

Updated: 2021-10-08